createdAt,value
2023-08-03T00:01:13.759Z,99.90
2023-08-03T00:03:41.948Z,99.90
2023-08-03T00:06:10.140Z,99.90
2023-08-03T00:08:38.373Z,99.90
2023-08-03T00:11:07.818Z,99.90
2023-08-03T00:13:35.857Z,99.90
2023-08-03T00:16:03.954Z,99.90
2023-08-03T00:18:32.056Z,99.90
2023-08-03T00:21:00.225Z,99.90
2023-08-03T00:23:28.303Z,99.90
2023-08-03T00:25:56.355Z,99.90
2023-08-03T00:28:25.798Z,99.90
2023-08-03T00:30:53.847Z,99.90
2023-08-03T00:33:21.903Z,99.90
2023-08-03T00:35:50.065Z,99.90
2023-08-03T00:38:18.037Z,99.90
2023-08-03T00:40:46.169Z,99.90
2023-08-03T00:43:14.167Z,99.90
2023-08-03T00:45:43.652Z,99.90
2023-08-03T00:48:11.905Z,99.90
2023-08-03T00:50:40.177Z,99.90
2023-08-03T00:53:08.502Z,99.90
2023-08-03T00:55:36.955Z,99.90
2023-08-03T00:58:05.189Z,99.90
2023-08-03T01:00:33.295Z,99.90
2023-08-03T01:03:03.479Z,99.90
2023-08-03T01:05:33.741Z,99.90
2023-08-03T01:08:01.845Z,99.90
2023-08-03T01:10:30.582Z,99.90
2023-08-03T01:12:59.375Z,99.90
2023-08-03T01:15:27.620Z,99.90
2023-08-03T01:17:55.817Z,99.90
2023-08-03T01:20:27.241Z,99.90
2023-08-03T01:22:56.674Z,99.90
2023-08-03T01:25:24.705Z,99.90
2023-08-03T01:27:52.729Z,99.90
2023-08-03T01:30:20.913Z,99.90
2023-08-03T01:32:49.054Z,99.90
2023-08-03T01:35:17.364Z,99.90
2023-08-03T01:37:45.458Z,99.90
2023-08-03T01:40:15.679Z,99.90
2023-08-03T01:42:43.771Z,99.90
2023-08-03T01:45:12.198Z,99.90
2023-08-03T01:47:40.327Z,99.90
2023-08-03T01:50:09.006Z,99.90
2023-08-03T01:52:37.085Z,99.90
2023-08-03T01:55:05.484Z,99.90
2023-08-03T01:57:35.049Z,99.90
2023-08-03T02:00:03.289Z,99.90
2023-08-03T02:02:31.410Z,99.90
2023-08-03T02:04:59.577Z,99.90
2023-08-03T02:07:45.104Z,99.90
2023-08-03T02:10:13.672Z,99.90
2023-08-03T02:12:43.158Z,99.90
2023-08-03T02:15:13.050Z,99.90
2023-08-03T02:17:41.275Z,99.90
2023-08-03T02:20:10.362Z,99.90
2023-08-03T02:22:38.391Z,99.90
2023-08-03T02:25:07.208Z,99.90
2023-08-03T02:27:35.326Z,99.90
2023-08-03T02:30:05.059Z,99.90
2023-08-03T02:32:33.139Z,99.90
2023-08-03T02:35:01.314Z,99.90
2023-08-03T02:37:29.375Z,99.90
2023-08-03T02:39:57.428Z,99.90
2023-08-03T02:42:25.397Z,99.90
2023-08-03T02:44:53.405Z,99.90
2023-08-03T02:47:22.965Z,99.90
2023-08-03T02:49:51.740Z,99.90
2023-08-03T02:52:19.789Z,99.90
2023-08-03T02:54:47.834Z,99.90
2023-08-03T02:57:15.923Z,99.90
2023-08-03T02:59:44.014Z,99.90
2023-08-03T03:02:12.313Z,99.90
2023-08-03T03:04:41.697Z,99.90
2023-08-03T03:07:10.084Z,99.90
2023-08-03T03:09:38.435Z,99.90
2023-08-03T03:12:07.018Z,99.90
2023-08-03T03:14:36.272Z,99.90
2023-08-03T03:17:04.634Z,99.90
2023-08-03T03:19:32.687Z,99.90
2023-08-03T03:22:02.489Z,99.90
2023-08-03T03:24:30.512Z,99.90
2023-08-03T03:26:58.519Z,99.90
2023-08-03T03:29:26.561Z,99.90
2023-08-03T03:31:54.669Z,99.90
2023-08-03T03:34:22.699Z,99.90
2023-08-03T03:36:51.551Z,99.90
2023-08-03T03:39:20.982Z,99.90
2023-08-03T03:41:49.023Z,99.90
2023-08-03T03:44:17.187Z,99.90
2023-08-03T03:46:45.148Z,99.90
2023-08-03T03:49:13.185Z,99.90
2023-08-03T03:51:41.203Z,99.90
2023-08-03T03:54:09.292Z,99.90
2023-08-03T03:56:38.684Z,99.90
2023-08-03T03:59:06.706Z,99.90
2023-08-03T04:01:34.839Z,99.90
2023-08-03T04:04:02.945Z,99.90
2023-08-03T04:06:31.221Z,99.90
2023-08-03T04:08:59.417Z,99.90
2023-08-03T04:11:27.458Z,99.90
2023-08-03T04:13:57.111Z,99.90
2023-08-03T04:16:25.276Z,99.90
2023-08-03T04:18:53.467Z,99.90
2023-08-03T04:21:21.574Z,99.90
2023-08-03T04:23:49.657Z,99.90
2023-08-03T04:26:17.735Z,99.90
2023-08-03T04:28:45.813Z,99.90
2023-08-03T04:31:15.348Z,99.90
2023-08-03T04:33:43.557Z,99.90
2023-08-03T04:36:11.838Z,99.90
2023-08-03T04:38:39.900Z,99.90
2023-08-03T04:41:07.982Z,99.90
2023-08-03T04:43:36.131Z,99.90
2023-08-03T04:46:04.192Z,99.90
2023-08-03T04:48:33.710Z,99.90
2023-08-03T04:51:02.382Z,99.90
2023-08-03T04:53:30.457Z,99.90
2023-08-03T04:55:58.603Z,99.90
2023-08-03T04:58:26.714Z,99.90
2023-08-03T05:00:54.916Z,99.90
2023-08-03T05:03:23.232Z,99.90
2023-08-03T05:05:52.764Z,99.90
2023-08-03T05:08:23.974Z,99.90
2023-08-03T05:10:52.436Z,99.90
2023-08-03T05:13:22.304Z,99.90
2023-08-03T05:15:50.406Z,99.90
2023-08-03T05:18:18.480Z,99.90
2023-08-03T05:20:46.564Z,99.90
2023-08-03T05:23:16.102Z,99.90
2023-08-03T05:25:44.183Z,99.90
2023-08-03T05:28:12.270Z,99.90
2023-08-03T05:30:40.561Z,99.90
2023-08-03T05:33:08.781Z,99.90
2023-08-03T05:35:36.894Z,99.90
2023-08-03T05:38:04.997Z,99.90
2023-08-03T05:40:34.547Z,99.90
2023-08-03T05:43:02.638Z,99.90
2023-08-03T05:45:39.987Z,99.90
2023-08-03T05:48:14.568Z,99.90
2023-08-03T05:50:44.261Z,99.90
2023-08-03T05:53:13.307Z,99.90
2023-08-03T05:55:43.880Z,99.90
2023-08-03T05:58:15.584Z,99.90
2023-08-03T06:00:44.953Z,99.90
2023-08-03T06:03:14.917Z,99.90
2023-08-03T06:05:44.675Z,99.90
2023-08-03T06:08:16.584Z,99.90
2023-08-03T06:10:47.007Z,99.90
2023-08-03T06:13:17.080Z,99.90
2023-08-03T06:15:46.699Z,99.90
2023-08-03T06:18:17.093Z,99.90
2023-08-03T06:20:47.127Z,99.90
2023-08-03T06:23:19.209Z,99.90
2023-08-03T06:25:49.956Z,99.90
2023-08-03T06:28:20.177Z,99.90
2023-08-03T06:30:49.734Z,99.90
2023-08-03T06:33:19.553Z,99.90
2023-08-03T06:35:48.869Z,99.90
2023-08-03T06:38:18.526Z,99.90
2023-08-03T06:40:49.740Z,99.90
2023-08-03T06:43:18.655Z,99.90
2023-08-03T06:45:47.141Z,99.90
2023-08-03T06:48:16.294Z,99.90
2023-08-03T06:50:45.834Z,99.90
2023-08-03T06:53:15.171Z,99.90
2023-08-03T06:55:45.522Z,99.90
2023-08-03T06:58:15.767Z,99.90
2023-08-03T07:00:43.819Z,95.70
2023-08-03T07:03:13.124Z,93.10
2023-08-03T07:05:41.980Z,92.60
2023-08-03T07:08:10.325Z,91.40
2023-08-03T07:10:39.917Z,83.50
2023-08-03T07:13:08.076Z,81.10
2023-08-03T07:15:37.608Z,80.20
2023-08-03T07:18:07.320Z,70.80
2023-08-03T07:20:36.813Z,73.40
2023-08-03T07:23:07.771Z,73.40
2023-08-03T07:25:36.274Z,68.70
2023-08-03T07:28:05.173Z,66.50
2023-08-03T07:30:36.536Z,61.80
2023-08-03T07:33:06.177Z,61.00
2023-08-03T07:35:34.257Z,62.60
2023-08-03T07:38:02.640Z,59.90
2023-08-03T07:40:31.762Z,59.10
2023-08-03T07:42:59.952Z,57.30
2023-08-03T07:47:59.802Z,54.10
2023-08-03T07:50:29.573Z,54.90
2023-08-03T07:52:57.797Z,52.70
2023-08-03T07:55:26.009Z,51.20
2023-08-03T07:57:54.715Z,48.10
2023-08-03T08:00:23.408Z,49.20
2023-08-03T08:02:51.785Z,49.50
2023-08-03T08:05:20.127Z,50.70
2023-08-03T08:07:49.721Z,51.60
2023-08-03T08:10:18.282Z,50.80
2023-08-03T08:12:49.166Z,49.00
2023-08-03T08:15:18.065Z,50.90
2023-08-03T08:17:46.200Z,51.30
2023-08-03T08:20:14.520Z,51.00
2023-08-03T08:22:42.836Z,49.50
2023-08-03T08:25:12.807Z,50.00
2023-08-03T08:27:40.988Z,48.10
2023-08-03T08:30:10.789Z,49.00
2023-08-03T08:32:39.700Z,49.00
2023-08-03T08:35:08.765Z,48.60
2023-08-03T08:37:36.818Z,48.60
2023-08-03T08:40:06.002Z,47.80
2023-08-03T08:42:36.805Z,46.30
2023-08-03T08:45:06.457Z,46.50
2023-08-03T08:47:34.962Z,44.90
2023-08-03T08:53:15.170Z,45.70
2023-08-03T09:00:29.835Z,43.70
2023-08-03T09:02:58.916Z,43.80
2023-08-03T09:08:02.561Z,43.60
2023-08-03T09:10:31.088Z,43.10
2023-08-03T09:13:01.245Z,43.30
2023-08-03T09:15:40.780Z,44.20
2023-08-03T09:18:09.748Z,45.50
2023-08-03T09:25:52.611Z,42.20
2023-08-03T09:36:06.857Z,43.20
2023-08-03T09:38:35.001Z,41.70
2023-08-03T09:41:03.270Z,43.20
2023-08-03T09:43:35.963Z,40.50
2023-08-03T09:46:04.754Z,41.40
2023-08-03T09:48:32.933Z,41.30
2023-08-03T09:51:03.331Z,39.80
2023-08-03T09:53:32.644Z,41.10
2023-08-03T09:56:03.025Z,41.00
2023-08-03T09:58:59.237Z,40.60
2023-08-03T10:01:29.934Z,37.80
2023-08-03T10:04:01.584Z,38.60
2023-08-03T10:06:34.457Z,40.10
2023-08-03T10:09:07.054Z,39.40
2023-08-03T10:11:39.330Z,38.20
2023-08-03T10:14:11.987Z,37.50
2023-08-03T10:16:42.013Z,35.20
2023-08-03T10:19:10.650Z,36.70
2023-08-03T10:21:39.196Z,37.10
2023-08-03T10:24:12.782Z,39.20
2023-08-03T10:26:41.730Z,37.70
2023-08-03T10:29:11.890Z,37.40
2023-08-03T10:31:56.722Z,38.60
2023-08-03T10:34:28.587Z,36.00
2023-08-03T10:37:01.388Z,37.70
2023-08-03T10:39:55.247Z,38.00
2023-08-03T10:42:28.834Z,39.60
2023-08-03T10:45:29.542Z,38.90
2023-08-03T10:48:28.222Z,39.40
2023-08-03T10:51:00.882Z,37.80
2023-08-03T10:53:29.095Z,37.60
2023-08-03T10:56:08.731Z,38.10
2023-08-03T10:58:49.503Z,40.20
2023-08-03T11:01:23.694Z,43.10
2023-08-03T11:03:52.690Z,44.80
2023-08-03T11:06:21.179Z,41.90
2023-08-03T11:08:51.544Z,42.90
2023-08-03T11:11:23.621Z,43.00
2023-08-03T11:13:52.167Z,44.90
2023-08-03T11:16:24.618Z,45.90
2023-08-03T11:18:52.818Z,46.70
2023-08-03T11:21:20.925Z,45.10
2023-08-03T11:23:49.007Z,42.90
2023-08-03T11:26:18.599Z,45.30
2023-08-03T11:28:47.390Z,44.30
2023-08-03T11:31:18.894Z,44.10
2023-08-03T11:33:51.916Z,42.90
2023-08-03T11:36:20.507Z,41.80
2023-08-03T11:38:48.868Z,44.30
2023-08-03T11:41:28.102Z,43.60
2023-08-03T11:44:00.837Z,45.30
2023-08-03T11:46:30.010Z,47.60
2023-08-03T11:49:00.603Z,48.90
2023-08-03T11:51:36.386Z,47.40
2023-08-03T11:54:05.388Z,47.30
2023-08-03T11:56:43.758Z,48.60
2023-08-03T11:59:11.934Z,44.90
2023-08-03T12:01:48.201Z,48.10
2023-08-03T12:04:19.045Z,47.80
2023-08-03T12:06:51.612Z,48.00
2023-08-03T12:09:21.883Z,50.20
2023-08-03T12:11:50.765Z,47.60
2023-08-03T12:14:19.991Z,47.50
2023-08-03T12:16:48.691Z,49.90
2023-08-03T12:19:20.293Z,49.10
2023-08-03T12:21:48.737Z,48.80
2023-08-03T12:24:17.030Z,50.10
2023-08-03T12:26:45.671Z,49.60
2023-08-03T12:29:14.519Z,50.00
2023-08-03T12:31:42.766Z,51.80
2023-08-03T12:34:11.061Z,52.10
2023-08-03T12:36:40.989Z,49.50
2023-08-03T12:39:10.614Z,50.00
2023-08-03T12:41:39.019Z,47.90
2023-08-03T12:44:07.322Z,49.60
2023-08-03T12:46:35.394Z,47.80
2023-08-03T12:49:04.859Z,47.40
2023-08-03T12:51:33.023Z,47.50
2023-08-03T12:54:02.542Z,48.10
2023-08-03T12:56:30.683Z,46.30
2023-08-03T12:58:58.809Z,47.80
2023-08-03T13:01:27.617Z,47.10
2023-08-03T13:03:55.733Z,46.70
2023-08-03T13:06:23.924Z,46.70
2023-08-03T13:08:52.050Z,48.90
2023-08-03T13:11:21.979Z,49.20
2023-08-03T13:13:50.236Z,47.20
2023-08-03T13:16:20.282Z,44.90
2023-08-03T13:18:50.311Z,47.10
2023-08-03T13:21:20.670Z,45.80
2023-08-03T13:23:50.536Z,45.60
2023-08-03T13:26:18.684Z,46.90
2023-08-03T13:28:51.725Z,47.10
2023-08-03T13:31:20.862Z,48.60
2023-08-03T13:33:49.056Z,50.00
2023-08-03T13:36:17.263Z,49.20
2023-08-03T13:38:45.420Z,46.70
2023-08-03T13:41:13.559Z,45.90
2023-08-03T13:43:42.636Z,46.50
2023-08-03T13:46:12.119Z,46.70
2023-08-03T13:48:40.233Z,46.40
2023-08-03T13:51:08.564Z,48.90
2023-08-03T13:53:36.708Z,44.50
2023-08-03T13:56:05.168Z,46.00
2023-08-03T13:58:47.557Z,45.70
2023-08-03T14:01:17.488Z,46.60
2023-08-03T14:03:45.736Z,46.70
2023-08-03T14:18:50.644Z,45.10
2023-08-03T14:21:49.808Z,45.00
2023-08-03T14:24:07.072Z,45.00
2023-08-03T14:26:35.235Z,47.00
2023-08-03T14:29:03.545Z,46.70
2023-08-03T14:31:33.630Z,47.00
2023-08-03T14:34:02.279Z,47.60
2023-08-03T14:36:30.477Z,47.80
2023-08-03T14:38:58.573Z,48.60
2023-08-03T14:41:28.764Z,48.10
2023-08-03T14:46:28.286Z,48.50
2023-08-03T14:49:09.913Z,47.50
2023-08-03T14:54:11.381Z,45.90
2023-08-03T14:56:39.676Z,46.10
2023-08-03T14:59:08.227Z,46.70
2023-08-03T15:01:36.892Z,45.90
2023-08-03T15:04:07.837Z,47.10
2023-08-03T15:06:40.634Z,45.50
2023-08-03T15:09:09.661Z,45.50
2023-08-03T15:11:38.001Z,47.00
2023-08-03T15:14:06.190Z,47.60
2023-08-03T15:16:34.814Z,48.10
2023-08-03T15:21:35.954Z,47.10
2023-08-03T15:24:05.248Z,47.00
2023-08-03T15:26:36.029Z,45.40
2023-08-03T15:29:07.285Z,48.90
2023-08-03T15:31:37.739Z,46.10
2023-08-03T15:34:07.641Z,47.30
2023-08-03T15:36:41.494Z,47.00
2023-08-03T15:39:14.757Z,46.70
2023-08-03T15:41:45.899Z,47.50
2023-08-03T15:44:17.845Z,46.40
2023-08-03T15:49:21.830Z,47.70
2023-08-03T15:51:56.548Z,47.40
2023-08-03T15:54:31.423Z,47.50
2023-08-03T15:57:03.927Z,48.80
2023-08-03T15:59:32.332Z,48.40
2023-08-03T16:02:00.625Z,49.20
2023-08-03T16:04:28.769Z,51.90
2023-08-03T16:06:58.224Z,53.10
2023-08-03T16:09:26.513Z,57.80
2023-08-03T16:11:55.647Z,52.70
2023-08-03T16:14:24.154Z,54.50
2023-08-03T16:16:52.454Z,53.90
2023-08-03T16:19:20.837Z,55.90
2023-08-03T16:21:49.201Z,55.90
2023-08-03T16:24:18.892Z,58.20
2023-08-03T16:26:47.614Z,55.50
2023-08-03T16:29:16.606Z,55.60
2023-08-03T16:34:22.615Z,52.40
2023-08-03T16:36:55.212Z,54.70
2023-08-03T16:39:25.603Z,54.70
2023-08-03T16:41:53.793Z,53.60
2023-08-03T16:44:21.897Z,54.90
2023-08-03T16:46:50.311Z,57.40
2023-08-03T16:49:20.649Z,56.00
2023-08-03T16:51:49.644Z,56.00
2023-08-03T16:54:17.816Z,55.60
2023-08-03T16:56:47.626Z,55.60
2023-08-03T16:59:16.038Z,54.60
2023-08-03T17:01:44.957Z,53.80
2023-08-03T17:04:13.496Z,53.10
2023-08-03T17:06:41.936Z,54.30
2023-08-03T17:09:10.426Z,53.80
2023-08-03T17:11:38.553Z,51.20
2023-08-03T17:14:08.865Z,51.20
2023-08-03T17:16:37.084Z,52.60
2023-08-03T17:19:05.302Z,53.50
2023-08-03T17:21:33.466Z,56.00
2023-08-03T17:24:01.703Z,54.40
2023-08-03T17:26:30.341Z,58.10
2023-08-03T17:28:58.438Z,58.20
2023-08-03T17:31:27.971Z,56.60
2023-08-03T17:33:56.116Z,57.70
2023-08-03T17:36:24.371Z,58.10
2023-08-03T17:38:52.773Z,58.40
2023-08-03T17:41:20.908Z,57.70
2023-08-03T17:43:48.980Z,58.60
2023-08-03T17:46:17.105Z,58.80
2023-08-03T17:48:47.834Z,59.90
2023-08-03T17:51:16.621Z,58.70
2023-08-03T17:53:46.089Z,61.10
2023-08-03T17:56:16.371Z,60.50
2023-08-03T17:58:46.532Z,63.60
2023-08-03T18:01:17.211Z,64.20
2023-08-03T18:03:47.021Z,66.60
2023-08-03T18:06:16.683Z,65.10
2023-08-03T18:08:45.644Z,66.10
2023-08-03T18:11:13.833Z,65.10
2023-08-03T18:13:41.921Z,67.50
2023-08-03T18:16:10.544Z,67.40
2023-08-03T18:18:41.280Z,69.90
2023-08-03T18:21:15.778Z,72.80
2023-08-03T18:23:44.262Z,74.20
2023-08-03T18:26:13.710Z,77.80
2023-08-03T18:28:41.889Z,80.00
2023-08-03T18:31:11.420Z,81.80
2023-08-03T18:33:41.031Z,84.40
2023-08-03T18:36:13.014Z,85.30
2023-08-03T18:38:42.684Z,88.30
2023-08-03T18:41:12.645Z,90.30
2023-08-03T18:43:40.949Z,91.20
2023-08-03T18:46:11.012Z,91.30
2023-08-03T18:48:40.055Z,92.60
2023-08-03T18:51:11.481Z,92.70
2023-08-03T18:53:41.029Z,93.50
2023-08-03T18:56:10.905Z,93.50
2023-08-03T18:58:40.511Z,93.40
2023-08-03T19:01:10.692Z,93.40
2023-08-03T19:03:40.725Z,93.70
2023-08-03T19:06:12.069Z,93.50
2023-08-03T19:08:41.794Z,93.60
2023-08-03T19:11:10.133Z,94.40
2023-08-03T19:13:39.082Z,95.20
2023-08-03T19:16:07.265Z,95.10
2023-08-03T19:18:35.624Z,95.60
2023-08-03T19:21:03.782Z,95.50
2023-08-03T19:23:33.333Z,96.00
2023-08-03T19:26:02.635Z,96.30
2023-08-03T19:28:30.899Z,97.20
2023-08-03T19:31:00.108Z,97.70
2023-08-03T19:33:28.263Z,99.90
2023-08-03T19:35:56.649Z,99.90
2023-08-03T19:38:24.920Z,99.90
2023-08-03T19:40:55.642Z,99.90
2023-08-03T19:43:24.004Z,99.90
2023-08-03T19:45:52.201Z,99.90
2023-08-03T19:48:20.453Z,99.90
2023-08-03T19:59:31.546Z,99.90
2023-08-03T20:06:16.541Z,99.90
2023-08-03T20:08:48.277Z,99.90
2023-08-03T20:11:17.341Z,99.90
2023-08-03T20:21:20.458Z,99.90
2023-08-03T20:23:48.656Z,99.90
2023-08-03T20:26:24.666Z,99.90
2023-08-03T20:29:04.002Z,99.90
2023-08-03T20:31:33.385Z,99.90
2023-08-03T20:36:33.002Z,99.90
2023-08-03T20:39:16.656Z,99.90
2023-08-03T20:45:00.229Z,99.90
2023-08-03T20:49:44.481Z,99.90
2023-08-03T20:52:14.017Z,99.90
2023-08-03T20:54:43.418Z,99.90
2023-08-03T20:57:11.849Z,99.90
2023-08-03T20:59:41.458Z,99.90
2023-08-03T21:02:09.619Z,99.90
2023-08-03T21:04:39.339Z,99.90
2023-08-03T21:07:08.127Z,99.90
2023-08-03T21:09:36.507Z,99.90
2023-08-03T21:12:05.582Z,99.90
2023-08-03T21:14:33.730Z,99.90
2023-08-03T21:17:03.236Z,99.90
2023-08-03T21:19:31.483Z,99.90
2023-08-03T21:22:00.120Z,99.90
2023-08-03T21:24:28.667Z,99.90
2023-08-03T21:26:56.800Z,99.90
2023-08-03T21:29:24.951Z,99.90
2023-08-03T21:31:53.042Z,99.90
2023-08-03T21:34:22.608Z,99.90
2023-08-03T21:36:50.723Z,99.90
2023-08-03T21:39:19.032Z,99.90
2023-08-03T21:41:47.555Z,99.90
2023-08-03T21:44:16.028Z,99.90
2023-08-03T21:46:44.252Z,99.90
2023-08-03T21:49:12.490Z,99.90
2023-08-03T21:51:42.089Z,99.90
2023-08-03T21:54:10.228Z,99.90
2023-08-03T21:56:38.324Z,99.90
2023-08-03T21:59:06.524Z,99.90
2023-08-03T22:01:34.689Z,99.90
2023-08-03T22:04:02.916Z,99.90
2023-08-03T22:06:31.045Z,99.90
2023-08-03T22:09:00.570Z,99.90
2023-08-03T22:11:28.857Z,99.90
2023-08-03T22:13:58.429Z,99.90
2023-08-03T22:16:27.303Z,99.90
2023-08-03T22:18:55.726Z,99.90
2023-08-03T22:21:23.922Z,99.90
2023-08-03T22:23:52.684Z,99.90
2023-08-03T22:26:23.409Z,99.90
2023-08-03T22:28:51.541Z,99.90
2023-08-03T22:31:20.102Z,99.90
2023-08-03T22:33:48.253Z,99.90
2023-08-03T22:36:18.103Z,99.90
2023-08-03T22:38:47.616Z,99.90
2023-08-03T22:41:16.255Z,99.90
2023-08-03T22:43:46.068Z,99.90
2023-08-03T22:46:18.612Z,99.90
2023-08-03T22:48:46.913Z,99.90
2023-08-03T22:51:16.723Z,99.90
2023-08-03T22:53:45.593Z,99.90
2023-08-03T22:56:13.849Z,99.90
2023-08-03T22:58:42.086Z,99.90
2023-08-03T23:01:19.650Z,99.90
2023-08-03T23:03:49.086Z,99.90
2023-08-03T23:06:18.461Z,99.90
2023-08-03T23:08:46.581Z,99.90
2023-08-03T23:11:15.092Z,99.90
2023-08-03T23:13:44.149Z,99.90
2023-08-03T23:16:20.524Z,99.90
2023-08-03T23:18:49.096Z,99.90
2023-08-03T23:21:17.421Z,99.90
2023-08-03T23:23:45.658Z,99.90
2023-08-03T23:26:15.665Z,99.90
2023-08-03T23:28:44.770Z,99.90
2023-08-03T23:31:13.788Z,99.90
2023-08-03T23:33:43.306Z,99.90
2023-08-03T23:36:11.492Z,99.90
2023-08-03T23:38:39.551Z,99.90
2023-08-03T23:41:07.576Z,99.90
2023-08-03T23:43:35.624Z,99.90
2023-08-03T23:46:03.910Z,99.90
2023-08-03T23:48:32.012Z,99.90
2023-08-03T23:51:01.445Z,99.90
2023-08-03T23:53:29.500Z,99.90
2023-08-03T23:55:57.604Z,99.90
2023-08-03T23:58:25.663Z,99.90
